sensor_id;sensor_type;location;lat;lon;timestamp;P1;durP1;ratioP1;P2;durP2;ratioP2
60030;SDS011;45901;47.600;9.890;2022-10-16T00:01:34;3.37;;;0.80;;
60030;SDS011;45901;47.600;9.890;2022-10-16T00:04:02;0.80;;;0.50;;
60030;SDS011;45901;47.600;9.890;2022-10-16T00:06:30;0.90;;;0.50;;
60030;SDS011;45901;47.600;9.890;2022-10-16T00:08:59;1.87;;;0.60;;
60030;SDS011;45901;47.600;9.890;2022-10-16T00:11:28;2.03;;;0.70;;
60030;SDS011;45901;47.600;9.890;2022-10-16T00:13:59;2.60;;;0.47;;
60030;SDS011;45901;47.600;9.890;2022-10-16T00:16:28;2.63;;;0.53;;
60030;SDS011;45901;47.600;9.890;2022-10-16T00:18:56;1.00;;;0.60;;
60030;SDS011;45901;47.600;9.890;2022-10-16T00:21:24;3.03;;;0.60;;
60030;SDS011;45901;47.600;9.890;2022-10-16T00:23:55;1.17;;;0.60;;
60030;SDS011;45901;47.600;9.890;2022-10-16T00:26:27;2.13;;;0.50;;
60030;SDS011;45901;47.600;9.890;2022-10-16T00:28:55;2.97;;;0.40;;
60030;SDS011;45901;47.600;9.890;2022-10-16T00:31:23;1.47;;;0.67;;
60030;SDS011;45901;47.600;9.890;2022-10-16T00:33:51;3.10;;;0.70;;
60030;SDS011;45901;47.600;9.890;2022-10-16T00:36:19;4.10;;;0.50;;
60030;SDS011;45901;47.600;9.890;2022-10-16T00:38:49;3.00;;;0.40;;
60030;SDS011;45901;47.600;9.890;2022-10-16T00:41:19;1.90;;;0.33;;
60030;SDS011;45901;47.600;9.890;2022-10-16T00:43:50;0.93;;;0.40;;
60030;SDS011;45901;47.600;9.890;2022-10-16T00:46:20;1.70;;;0.30;;
60030;SDS011;45901;47.600;9.890;2022-10-16T00:48:51;1.07;;;0.40;;
60030;SDS011;45901;47.600;9.890;2022-10-16T00:51:24;1.00;;;0.40;;
60030;SDS011;45901;47.600;9.890;2022-10-16T00:53:57;4.30;;;0.40;;
60030;SDS011;45901;47.600;9.890;2022-10-16T00:56:26;5.30;;;0.70;;
60030;SDS011;45901;47.600;9.890;2022-10-16T00:58:55;0.87;;;0.50;;
60030;SDS011;45901;47.600;9.890;2022-10-16T01:01:23;0.60;;;0.57;;
60030;SDS011;45901;47.600;9.890;2022-10-16T01:03:50;1.73;;;0.70;;
60030;SDS011;45901;47.600;9.890;2022-10-16T01:06:20;4.63;;;0.60;;
60030;SDS011;45901;47.600;9.890;2022-10-16T01:08:58;3.07;;;0.70;;
60030;SDS011;45901;47.600;9.890;2022-10-16T01:11:39;5.33;;;0.70;;
60030;SDS011;45901;47.600;9.890;2022-10-16T01:14:19;1.70;;;0.63;;
60030;SDS011;45901;47.600;9.890;2022-10-16T01:17:01;4.73;;;0.63;;
60030;SDS011;45901;47.600;9.890;2022-10-16T01:19:41;1.33;;;0.60;;
60030;SDS011;45901;47.600;9.890;2022-10-16T01:22:30;2.40;;;0.50;;
60030;SDS011;45901;47.600;9.890;2022-10-16T01:25:09;1.03;;;0.40;;
60030;SDS011;45901;47.600;9.890;2022-10-16T01:28:02;2.00;;;0.57;;
60030;SDS011;45901;47.600;9.890;2022-10-16T01:30:37;2.30;;;0.50;;
60030;SDS011;45901;47.600;9.890;2022-10-16T01:33:34;4.27;;;0.57;;
60030;SDS011;45901;47.600;9.890;2022-10-16T01:36:14;0.77;;;0.40;;
60030;SDS011;45901;47.600;9.890;2022-10-16T01:38:49;1.60;;;0.40;;
60030;SDS011;45901;47.600;9.890;2022-10-16T01:41:24;1.27;;;0.37;;
60030;SDS011;45901;47.600;9.890;2022-10-16T01:44:46;1.37;;;0.40;;
60030;SDS011;45901;47.600;9.890;2022-10-16T01:47:22;0.63;;;0.50;;
60030;SDS011;45901;47.600;9.890;2022-10-16T01:49:57;2.30;;;0.33;;
60030;SDS011;45901;47.600;9.890;2022-10-16T01:52:46;2.73;;;0.50;;
60030;SDS011;45901;47.600;9.890;2022-10-16T01:55:23;0.50;;;0.40;;
60030;SDS011;45901;47.600;9.890;2022-10-16T01:58:07;1.13;;;0.40;;
60030;SDS011;45901;47.600;9.890;2022-10-16T02:00:49;2.07;;;0.40;;
60030;SDS011;45901;47.600;9.890;2022-10-16T02:03:22;1.03;;;0.30;;
60030;SDS011;45901;47.600;9.890;2022-10-16T02:05:52;0.50;;;0.30;;
60030;SDS011;45901;47.600;9.890;2022-10-16T02:08:38;0.80;;;0.40;;
60030;SDS011;45901;47.600;9.890;2022-10-16T02:11:09;0.50;;;0.23;;
60030;SDS011;45901;47.600;9.890;2022-10-16T02:13:37;1.63;;;0.30;;
60030;SDS011;45901;47.600;9.890;2022-10-16T02:16:11;2.53;;;0.37;;
60030;SDS011;45901;47.600;9.890;2022-10-16T02:18:40;0.70;;;0.30;;
60030;SDS011;45901;47.600;9.890;2022-10-16T02:21:10;0.40;;;0.30;;
60030;SDS011;45901;47.600;9.890;2022-10-16T02:23:45;2.43;;;0.40;;
60030;SDS011;45901;47.600;9.890;2022-10-16T02:26:21;0.40;;;0.20;;
60030;SDS011;45901;47.600;9.890;2022-10-16T02:28:57;1.90;;;0.40;;
60030;SDS011;45901;47.600;9.890;2022-10-16T02:31:32;2.10;;;0.33;;
60030;SDS011;45901;47.600;9.890;2022-10-16T02:34:04;0.97;;;0.50;;
60030;SDS011;45901;47.600;9.890;2022-10-16T02:36:36;1.73;;;0.40;;
60030;SDS011;45901;47.600;9.890;2022-10-16T02:39:06;1.03;;;0.50;;
60030;SDS011;45901;47.600;9.890;2022-10-16T02:41:34;1.30;;;0.60;;
60030;SDS011;45901;47.600;9.890;2022-10-16T02:44:02;1.83;;;0.33;;
60030;SDS011;45901;47.600;9.890;2022-10-16T02:46:29;1.60;;;0.47;;
60030;SDS011;45901;47.600;9.890;2022-10-16T02:48:58;0.90;;;0.47;;
60030;SDS011;45901;47.600;9.890;2022-10-16T02:51:25;0.63;;;0.40;;
60030;SDS011;45901;47.600;9.890;2022-10-16T02:53:53;2.97;;;0.50;;
60030;SDS011;45901;47.600;9.890;2022-10-16T02:56:20;1.00;;;0.40;;
60030;SDS011;45901;47.600;9.890;2022-10-16T02:58:47;4.97;;;0.50;;
60030;SDS011;45901;47.600;9.890;2022-10-16T03:01:14;1.40;;;0.50;;
60030;SDS011;45901;47.600;9.890;2022-10-16T03:03:45;0.73;;;0.50;;
60030;SDS011;45901;47.600;9.890;2022-10-16T03:06:12;2.23;;;0.37;;
60030;SDS011;45901;47.600;9.890;2022-10-16T03:08:40;2.47;;;0.50;;
60030;SDS011;45901;47.600;9.890;2022-10-16T03:11:07;1.07;;;0.53;;
60030;SDS011;45901;47.600;9.890;2022-10-16T03:13:35;1.20;;;0.50;;
60030;SDS011;45901;47.600;9.890;2022-10-16T03:16:02;2.40;;;0.50;;
60030;SDS011;45901;47.600;9.890;2022-10-16T03:18:30;3.37;;;0.50;;
60030;SDS011;45901;47.600;9.890;2022-10-16T03:20:58;2.40;;;0.57;;
60030;SDS011;45901;47.600;9.890;2022-10-16T03:23:26;6.70;;;0.40;;
60030;SDS011;45901;47.600;9.890;2022-10-16T03:25:53;4.70;;;0.30;;
60030;SDS011;45901;47.600;9.890;2022-10-16T03:28:21;0.77;;;0.40;;
60030;SDS011;45901;47.600;9.890;2022-10-16T03:30:48;2.23;;;0.40;;
60030;SDS011;45901;47.600;9.890;2022-10-16T03:33:16;1.13;;;0.60;;
60030;SDS011;45901;47.600;9.890;2022-10-16T03:35:50;2.57;;;0.50;;
60030;SDS011;45901;47.600;9.890;2022-10-16T03:38:20;0.90;;;0.50;;
60030;SDS011;45901;47.600;9.890;2022-10-16T03:40:48;1.87;;;0.20;;
60030;SDS011;45901;47.600;9.890;2022-10-16T03:43:15;2.30;;;0.70;;
60030;SDS011;45901;47.600;9.890;2022-10-16T03:45:43;2.17;;;0.60;;
60030;SDS011;45901;47.600;9.890;2022-10-16T03:48:10;0.93;;;0.53;;
60030;SDS011;45901;47.600;9.890;2022-10-16T03:50:38;2.57;;;0.57;;
60030;SDS011;45901;47.600;9.890;2022-10-16T03:53:05;2.60;;;0.60;;
60030;SDS011;45901;47.600;9.890;2022-10-16T03:55:34;3.30;;;0.53;;
60030;SDS011;45901;47.600;9.890;2022-10-16T03:58:02;0.73;;;0.50;;
60030;SDS011;45901;47.600;9.890;2022-10-16T04:00:29;1.40;;;0.63;;
60030;SDS011;45901;47.600;9.890;2022-10-16T04:02:56;4.73;;;0.73;;
60030;SDS011;45901;47.600;9.890;2022-10-16T04:05:23;1.37;;;0.70;;
60030;SDS011;45901;47.600;9.890;2022-10-16T04:07:51;5.57;;;0.70;;
60030;SDS011;45901;47.600;9.890;2022-10-16T04:10:18;3.00;;;0.60;;
60030;SDS011;45901;47.600;9.890;2022-10-16T04:12:47;2.10;;;0.60;;
60030;SDS011;45901;47.600;9.890;2022-10-16T04:15:14;2.43;;;0.60;;
60030;SDS011;45901;47.600;9.890;2022-10-16T04:17:42;5.23;;;1.77;;
60030;SDS011;45901;47.600;9.890;2022-10-16T04:20:09;4.17;;;0.80;;
60030;SDS011;45901;47.600;9.890;2022-10-16T04:22:36;3.13;;;0.80;;
60030;SDS011;45901;47.600;9.890;2022-10-16T04:25:04;1.70;;;0.73;;
60030;SDS011;45901;47.600;9.890;2022-10-16T04:27:32;2.73;;;0.80;;
60030;SDS011;45901;47.600;9.890;2022-10-16T04:30:00;4.53;;;1.10;;
60030;SDS011;45901;47.600;9.890;2022-10-16T04:32:28;2.63;;;0.80;;
60030;SDS011;45901;47.600;9.890;2022-10-16T04:34:55;2.70;;;1.10;;
60030;SDS011;45901;47.600;9.890;2022-10-16T04:37:23;3.57;;;1.30;;
60030;SDS011;45901;47.600;9.890;2022-10-16T04:39:51;5.13;;;1.90;;
60030;SDS011;45901;47.600;9.890;2022-10-16T04:42:18;3.83;;;2.00;;
60030;SDS011;45901;47.600;9.890;2022-10-16T04:44:46;3.93;;;2.10;;
60030;SDS011;45901;47.600;9.890;2022-10-16T04:47:15;3.67;;;1.47;;
60030;SDS011;45901;47.600;9.890;2022-10-16T04:49:42;4.90;;;1.80;;
60030;SDS011;45901;47.600;9.890;2022-10-16T04:52:09;3.37;;;2.10;;
60030;SDS011;45901;47.600;9.890;2022-10-16T04:54:39;3.00;;;1.80;;
60030;SDS011;45901;47.600;9.890;2022-10-16T04:57:19;4.40;;;1.27;;
60030;SDS011;45901;47.600;9.890;2022-10-16T05:00:02;2.63;;;0.90;;
60030;SDS011;45901;47.600;9.890;2022-10-16T05:06:10;3.03;;;0.80;;
60030;SDS011;45901;47.600;9.890;2022-10-16T05:12:02;2.27;;;0.80;;
60030;SDS011;45901;47.600;9.890;2022-10-16T05:18:03;2.23;;;1.20;;
60030;SDS011;45901;47.600;9.890;2022-10-16T05:20:33;1.53;;;1.10;;
60030;SDS011;45901;47.600;9.890;2022-10-16T05:23:07;6.60;;;4.37;;
60030;SDS011;45901;47.600;9.890;2022-10-16T05:25:37;8.00;;;2.50;;
60030;SDS011;45901;47.600;9.890;2022-10-16T05:28:04;0.93;;;0.47;;
60030;SDS011;45901;47.600;9.890;2022-10-16T05:30:31;9.10;;;2.60;;
60030;SDS011;45901;47.600;9.890;2022-10-16T05:32:58;3.17;;;1.03;;
60030;SDS011;45901;47.600;9.890;2022-10-16T05:35:27;3.43;;;2.37;;
60030;SDS011;45901;47.600;9.890;2022-10-16T05:38:03;8.37;;;3.80;;
60030;SDS011;45901;47.600;9.890;2022-10-16T05:40:39;6.57;;;3.70;;
60030;SDS011;45901;47.600;9.890;2022-10-16T05:43:13;6.10;;;3.67;;
60030;SDS011;45901;47.600;9.890;2022-10-16T05:45:56;7.40;;;3.67;;
60030;SDS011;45901;47.600;9.890;2022-10-16T05:48:32;5.67;;;2.70;;
60030;SDS011;45901;47.600;9.890;2022-10-16T05:51:03;7.00;;;3.33;;
60030;SDS011;45901;47.600;9.890;2022-10-16T05:53:40;5.80;;;3.90;;
60030;SDS011;45901;47.600;9.890;2022-10-16T05:56:10;5.17;;;2.77;;
60030;SDS011;45901;47.600;9.890;2022-10-16T05:58:47;6.70;;;3.20;;
60030;SDS011;45901;47.600;9.890;2022-10-16T06:01:17;4.73;;;3.10;;
60030;SDS011;45901;47.600;9.890;2022-10-16T06:03:49;6.80;;;3.43;;
60030;SDS011;45901;47.600;9.890;2022-10-16T06:06:17;6.43;;;2.97;;
60030;SDS011;45901;47.600;9.890;2022-10-16T06:08:50;5.10;;;3.23;;
60030;SDS011;45901;47.600;9.890;2022-10-16T06:11:20;3.43;;;2.23;;
60030;SDS011;45901;47.600;9.890;2022-10-16T06:13:49;8.40;;;2.67;;
60030;SDS011;45901;47.600;9.890;2022-10-16T06:16:17;3.50;;;2.40;;
60030;SDS011;45901;47.600;9.890;2022-10-16T06:18:44;4.53;;;2.50;;
60030;SDS011;45901;47.600;9.890;2022-10-16T06:21:12;8.57;;;3.13;;
60030;SDS011;45901;47.600;9.890;2022-10-16T06:23:43;8.67;;;5.17;;
60030;SDS011;45901;47.600;9.890;2022-10-16T06:26:14;5.03;;;2.70;;
60030;SDS011;45901;47.600;9.890;2022-10-16T06:28:43;3.17;;;2.00;;
60030;SDS011;45901;47.600;9.890;2022-10-16T06:31:11;1.80;;;1.20;;
60030;SDS011;45901;47.600;9.890;2022-10-16T06:33:39;2.27;;;1.10;;
60030;SDS011;45901;47.600;9.890;2022-10-16T06:36:08;9.17;;;1.90;;
60030;SDS011;45901;47.600;9.890;2022-10-16T06:38:37;5.23;;;3.33;;
60030;SDS011;45901;47.600;9.890;2022-10-16T06:41:04;2.17;;;1.53;;
60030;SDS011;45901;47.600;9.890;2022-10-16T06:43:34;1.33;;;0.80;;
60030;SDS011;45901;47.600;9.890;2022-10-16T06:46:06;1.10;;;0.77;;
60030;SDS011;45901;47.600;9.890;2022-10-16T06:49:14;1.77;;;0.80;;
60030;SDS011;45901;47.600;9.890;2022-10-16T06:51:49;2.80;;;0.40;;
60030;SDS011;45901;47.600;9.890;2022-10-16T06:54:22;2.13;;;0.43;;
60030;SDS011;45901;47.600;9.890;2022-10-16T06:57:07;1.40;;;0.67;;
60030;SDS011;45901;47.600;9.890;2022-10-16T06:59:42;3.93;;;0.67;;
60030;SDS011;45901;47.600;9.890;2022-10-16T07:02:15;1.00;;;0.50;;
60030;SDS011;45901;47.600;9.890;2022-10-16T07:04:44;1.23;;;0.70;;
60030;SDS011;45901;47.600;9.890;2022-10-16T07:07:52;1.60;;;0.80;;
60030;SDS011;45901;47.600;9.890;2022-10-16T07:10:23;2.33;;;0.77;;
60030;SDS011;45901;47.600;9.890;2022-10-16T07:12:50;6.27;;;1.07;;
60030;SDS011;45901;47.600;9.890;2022-10-16T07:15:20;3.63;;;0.63;;
60030;SDS011;45901;47.600;9.890;2022-10-16T07:17:49;2.40;;;0.70;;
60030;SDS011;45901;47.600;9.890;2022-10-16T07:20:16;2.07;;;0.77;;
60030;SDS011;45901;47.600;9.890;2022-10-16T07:22:45;1.80;;;1.00;;
60030;SDS011;45901;47.600;9.890;2022-10-16T07:25:12;3.27;;;1.20;;
60030;SDS011;45901;47.600;9.890;2022-10-16T07:27:39;3.80;;;1.37;;
60030;SDS011;45901;47.600;9.890;2022-10-16T07:30:07;1.83;;;1.10;;
60030;SDS011;45901;47.600;9.890;2022-10-16T07:32:37;1.53;;;0.70;;
60030;SDS011;45901;47.600;9.890;2022-10-16T07:35:04;2.73;;;0.87;;
60030;SDS011;45901;47.600;9.890;2022-10-16T07:37:33;1.77;;;0.77;;
60030;SDS011;45901;47.600;9.890;2022-10-16T07:40:00;1.07;;;0.60;;
60030;SDS011;45901;47.600;9.890;2022-10-16T07:42:27;1.87;;;0.67;;
60030;SDS011;45901;47.600;9.890;2022-10-16T07:44:55;2.63;;;0.60;;
60030;SDS011;45901;47.600;9.890;2022-10-16T07:47:22;1.60;;;0.60;;
60030;SDS011;45901;47.600;9.890;2022-10-16T07:49:51;0.60;;;0.47;;
60030;SDS011;45901;47.600;9.890;2022-10-16T07:52:18;2.23;;;0.43;;
60030;SDS011;45901;47.600;9.890;2022-10-16T07:54:46;1.07;;;0.50;;
60030;SDS011;45901;47.600;9.890;2022-10-16T07:57:13;1.67;;;0.47;;
60030;SDS011;45901;47.600;9.890;2022-10-16T07:59:44;4.00;;;0.67;;
60030;SDS011;45901;47.600;9.890;2022-10-16T08:02:11;4.13;;;0.60;;
60030;SDS011;45901;47.600;9.890;2022-10-16T08:04:38;0.70;;;0.47;;
60030;SDS011;45901;47.600;9.890;2022-10-16T08:07:08;1.87;;;0.60;;
60030;SDS011;45901;47.600;9.890;2022-10-16T08:09:35;3.77;;;0.60;;
60030;SDS011;45901;47.600;9.890;2022-10-16T08:12:07;2.10;;;0.50;;
60030;SDS011;45901;47.600;9.890;2022-10-16T08:14:36;2.10;;;0.70;;
60030;SDS011;45901;47.600;9.890;2022-10-16T08:17:10;3.73;;;0.70;;
60030;SDS011;45901;47.600;9.890;2022-10-16T08:19:48;5.40;;;0.80;;
60030;SDS011;45901;47.600;9.890;2022-10-16T08:22:19;2.43;;;0.53;;
60030;SDS011;45901;47.600;9.890;2022-10-16T08:24:55;1.97;;;0.70;;
60030;SDS011;45901;47.600;9.890;2022-10-16T08:27:31;3.47;;;0.50;;
60030;SDS011;45901;47.600;9.890;2022-10-16T08:30:19;2.27;;;0.50;;
60030;SDS011;45901;47.600;9.890;2022-10-16T08:32:55;5.67;;;0.80;;
60030;SDS011;45901;47.600;9.890;2022-10-16T08:35:24;3.43;;;1.00;;
60030;SDS011;45901;47.600;9.890;2022-10-16T08:38:05;2.73;;;1.00;;
60030;SDS011;45901;47.600;9.890;2022-10-16T08:40:47;0.60;;;0.47;;
60030;SDS011;45901;47.600;9.890;2022-10-16T08:46:21;3.37;;;0.60;;
60030;SDS011;45901;47.600;9.890;2022-10-16T08:49:09;1.17;;;0.30;;
60030;SDS011;45901;47.600;9.890;2022-10-16T08:51:41;1.40;;;0.50;;
60030;SDS011;45901;47.600;9.890;2022-10-16T08:54:21;0.33;;;0.33;;
60030;SDS011;45901;47.600;9.890;2022-10-16T08:57:00;0.40;;;0.20;;
60030;SDS011;45901;47.600;9.890;2022-10-16T08:59:35;0.30;;;0.30;;
60030;SDS011;45901;47.600;9.890;2022-10-16T09:03:39;2.67;;;0.47;;
60030;SDS011;45901;47.600;9.890;2022-10-16T09:05:32;1.67;;;0.30;;
60030;SDS011;45901;47.600;9.890;2022-10-16T09:08:32;1.30;;;0.60;;
60030;SDS011;45901;47.600;9.890;2022-10-16T09:11:17;2.27;;;0.57;;
60030;SDS011;45901;47.600;9.890;2022-10-16T09:14:04;1.40;;;0.50;;
60030;SDS011;45901;47.600;9.890;2022-10-16T09:17:03;1.23;;;0.47;;
60030;SDS011;45901;47.600;9.890;2022-10-16T09:19:46;0.40;;;0.30;;
60030;SDS011;45901;47.600;9.890;2022-10-16T09:22:20;2.00;;;0.33;;
60030;SDS011;45901;47.600;9.890;2022-10-16T09:24:53;1.37;;;0.53;;
60030;SDS011;45901;47.600;9.890;2022-10-16T09:27:26;2.63;;;0.50;;
60030;SDS011;45901;47.600;9.890;2022-10-16T09:29:54;0.23;;;0.20;;
60030;SDS011;45901;47.600;9.890;2022-10-16T09:32:21;1.57;;;0.50;;
60030;SDS011;45901;47.600;9.890;2022-10-16T09:34:49;0.90;;;0.40;;
60030;SDS011;45901;47.600;9.890;2022-10-16T09:37:21;0.60;;;0.50;;
60030;SDS011;45901;47.600;9.890;2022-10-16T09:39:51;2.83;;;0.60;;
60030;SDS011;45901;47.600;9.890;2022-10-16T09:42:20;3.70;;;0.57;;
60030;SDS011;45901;47.600;9.890;2022-10-16T09:44:51;2.23;;;0.50;;
60030;SDS011;45901;47.600;9.890;2022-10-16T09:47:20;1.73;;;0.60;;
60030;SDS011;45901;47.600;9.890;2022-10-16T09:49:50;0.43;;;0.40;;
60030;SDS011;45901;47.600;9.890;2022-10-16T09:52:19;0.57;;;0.50;;
60030;SDS011;45901;47.600;9.890;2022-10-16T09:54:50;1.63;;;0.40;;
60030;SDS011;45901;47.600;9.890;2022-10-16T09:57:20;2.00;;;0.40;;
60030;SDS011;45901;47.600;9.890;2022-10-16T09:59:48;4.60;;;0.90;;
60030;SDS011;45901;47.600;9.890;2022-10-16T10:02:19;3.77;;;0.83;;
60030;SDS011;45901;47.600;9.890;2022-10-16T10:04:57;4.17;;;0.70;;
60030;SDS011;45901;47.600;9.890;2022-10-16T10:07:25;1.10;;;0.70;;
60030;SDS011;45901;47.600;9.890;2022-10-16T10:09:54;2.13;;;0.40;;
60030;SDS011;45901;47.600;9.890;2022-10-16T10:12:23;0.97;;;0.60;;
60030;SDS011;45901;47.600;9.890;2022-10-16T10:14:54;1.60;;;0.50;;
60030;SDS011;45901;47.600;9.890;2022-10-16T10:17:24;1.13;;;0.47;;
60030;SDS011;45901;47.600;9.890;2022-10-16T11:00:09;0.40;;;0.27;;
60030;SDS011;45901;47.600;9.890;2022-10-16T11:11:09;1.27;;;0.40;;
60030;SDS011;45901;47.600;9.890;2022-10-16T11:13:54;2.60;;;0.50;;
60030;SDS011;45901;47.600;9.890;2022-10-16T16:44:42;4.57;;;1.00;;
60030;SDS011;45901;47.600;9.890;2022-10-16T16:47:10;1.83;;;0.80;;
60030;SDS011;45901;47.600;9.890;2022-10-16T16:49:37;1.87;;;0.70;;
60030;SDS011;45901;47.600;9.890;2022-10-16T16:52:05;1.93;;;0.87;;
60030;SDS011;45901;47.600;9.890;2022-10-16T16:54:32;4.00;;;1.10;;
60030;SDS011;45901;47.600;9.890;2022-10-16T16:57:00;2.80;;;0.90;;
60030;SDS011;45901;47.600;9.890;2022-10-16T16:59:28;3.50;;;1.10;;
60030;SDS011;45901;47.600;9.890;2022-10-16T17:01:59;5.97;;;1.30;;
60030;SDS011;45901;47.600;9.890;2022-10-16T17:04:26;3.80;;;1.67;;
60030;SDS011;45901;47.600;9.890;2022-10-16T17:06:54;5.17;;;1.60;;
60030;SDS011;45901;47.600;9.890;2022-10-16T17:09:22;3.57;;;1.73;;
60030;SDS011;45901;47.600;9.890;2022-10-16T17:11:49;3.93;;;1.30;;
60030;SDS011;45901;47.600;9.890;2022-10-16T17:14:16;10.33;;;1.40;;
60030;SDS011;45901;47.600;9.890;2022-10-16T17:16:43;2.67;;;1.20;;
60030;SDS011;45901;47.600;9.890;2022-10-16T17:19:14;2.67;;;1.60;;
60030;SDS011;45901;47.600;9.890;2022-10-16T17:21:43;3.33;;;1.80;;
60030;SDS011;45901;47.600;9.890;2022-10-16T17:24:11;6.03;;;1.60;;
60030;SDS011;45901;47.600;9.890;2022-10-16T17:26:38;2.87;;;1.77;;
60030;SDS011;45901;47.600;9.890;2022-10-16T17:29:09;9.70;;;1.93;;
60030;SDS011;45901;47.600;9.890;2022-10-16T17:31:38;4.23;;;1.80;;
60030;SDS011;45901;47.600;9.890;2022-10-16T17:34:06;4.33;;;2.43;;
60030;SDS011;45901;47.600;9.890;2022-10-16T17:36:38;3.63;;;2.00;;
60030;SDS011;45901;47.600;9.890;2022-10-16T17:39:11;4.60;;;2.10;;
60030;SDS011;45901;47.600;9.890;2022-10-16T17:41:41;4.07;;;2.17;;
60030;SDS011;45901;47.600;9.890;2022-10-16T17:44:10;3.43;;;1.77;;
60030;SDS011;45901;47.600;9.890;2022-10-16T17:46:44;6.47;;;1.70;;
60030;SDS011;45901;47.600;9.890;2022-10-16T17:49:12;6.63;;;2.03;;
60030;SDS011;45901;47.600;9.890;2022-10-16T17:51:42;9.13;;;2.10;;
60030;SDS011;45901;47.600;9.890;2022-10-16T17:54:09;1.83;;;1.30;;
60030;SDS011;45901;47.600;9.890;2022-10-16T17:56:39;3.63;;;1.70;;
60030;SDS011;45901;47.600;9.890;2022-10-16T17:59:12;3.27;;;1.30;;
60030;SDS011;45901;47.600;9.890;2022-10-16T18:01:39;3.70;;;1.50;;
60030;SDS011;45901;47.600;9.890;2022-10-16T18:04:10;3.40;;;1.40;;
60030;SDS011;45901;47.600;9.890;2022-10-16T18:06:42;4.50;;;1.50;;
60030;SDS011;45901;47.600;9.890;2022-10-16T18:09:12;5.10;;;1.50;;
60030;SDS011;45901;47.600;9.890;2022-10-16T18:11:42;2.20;;;1.40;;
60030;SDS011;45901;47.600;9.890;2022-10-16T18:14:11;2.73;;;1.67;;
60030;SDS011;45901;47.600;9.890;2022-10-16T18:16:39;5.43;;;1.70;;
60030;SDS011;45901;47.600;9.890;2022-10-16T18:19:07;2.73;;;1.83;;
60030;SDS011;45901;47.600;9.890;2022-10-16T18:21:35;2.33;;;1.50;;
60030;SDS011;45901;47.600;9.890;2022-10-16T18:24:04;4.33;;;1.63;;
60030;SDS011;45901;47.600;9.890;2022-10-16T18:26:32;2.93;;;1.73;;
60030;SDS011;45901;47.600;9.890;2022-10-16T18:28:59;3.23;;;1.90;;
60030;SDS011;45901;47.600;9.890;2022-10-16T18:31:27;4.47;;;1.97;;
60030;SDS011;45901;47.600;9.890;2022-10-16T18:33:54;3.20;;;1.93;;
60030;SDS011;45901;47.600;9.890;2022-10-16T18:36:23;4.40;;;2.37;;
60030;SDS011;45901;47.600;9.890;2022-10-16T18:38:53;3.60;;;1.90;;
60030;SDS011;45901;47.600;9.890;2022-10-16T18:41:23;4.33;;;2.13;;
60030;SDS011;45901;47.600;9.890;2022-10-16T18:43:52;7.47;;;2.33;;
60030;SDS011;45901;47.600;9.890;2022-10-16T18:46:20;7.20;;;3.43;;
60030;SDS011;45901;47.600;9.890;2022-10-16T18:48:50;7.87;;;3.37;;
60030;SDS011;45901;47.600;9.890;2022-10-16T18:51:19;7.27;;;3.37;;
60030;SDS011;45901;47.600;9.890;2022-10-16T18:53:48;9.17;;;3.87;;
60030;SDS011;45901;47.600;9.890;2022-10-16T18:56:18;5.87;;;3.87;;
60030;SDS011;45901;47.600;9.890;2022-10-16T18:58:49;9.00;;;4.23;;
60030;SDS011;45901;47.600;9.890;2022-10-16T19:01:19;6.43;;;3.10;;
60030;SDS011;45901;47.600;9.890;2022-10-16T19:03:52;4.60;;;2.70;;
60030;SDS011;45901;47.600;9.890;2022-10-16T19:06:22;5.40;;;2.10;;
60030;SDS011;45901;47.600;9.890;2022-10-16T19:08:51;3.63;;;2.03;;
60030;SDS011;45901;47.600;9.890;2022-10-16T19:11:20;12.90;;;4.20;;
60030;SDS011;45901;47.600;9.890;2022-10-16T19:13:50;5.63;;;2.50;;
60030;SDS011;45901;47.600;9.890;2022-10-16T19:16:20;4.10;;;1.60;;
60030;SDS011;45901;47.600;9.890;2022-10-16T19:18:50;4.43;;;2.17;;
60030;SDS011;45901;47.600;9.890;2022-10-16T19:21:19;4.10;;;1.83;;
60030;SDS011;45901;47.600;9.890;2022-10-16T19:23:50;5.50;;;2.43;;
60030;SDS011;45901;47.600;9.890;2022-10-16T19:26:18;8.93;;;2.37;;
60030;SDS011;45901;47.600;9.890;2022-10-16T19:28:45;4.63;;;2.47;;
60030;SDS011;45901;47.600;9.890;2022-10-16T19:31:16;4.03;;;2.53;;
60030;SDS011;45901;47.600;9.890;2022-10-16T19:33:45;5.03;;;1.97;;
60030;SDS011;45901;47.600;9.890;2022-10-16T19:36:13;3.23;;;1.40;;
60030;SDS011;45901;47.600;9.890;2022-10-16T19:38:44;3.53;;;1.60;;
60030;SDS011;45901;47.600;9.890;2022-10-16T19:41:12;2.67;;;1.10;;
60030;SDS011;45901;47.600;9.890;2022-10-16T19:43:43;3.07;;;2.13;;
60030;SDS011;45901;47.600;9.890;2022-10-16T19:46:12;2.93;;;1.30;;
60030;SDS011;45901;47.600;9.890;2022-10-16T19:48:45;2.93;;;1.50;;
60030;SDS011;45901;47.600;9.890;2022-10-16T19:51:13;3.80;;;1.70;;
60030;SDS011;45901;47.600;9.890;2022-10-16T19:53:44;3.80;;;1.57;;
60030;SDS011;45901;47.600;9.890;2022-10-16T19:56:13;5.33;;;1.80;;
60030;SDS011;45901;47.600;9.890;2022-10-16T19:58:43;5.87;;;2.00;;
60030;SDS011;45901;47.600;9.890;2022-10-16T20:01:11;2.80;;;1.93;;
60030;SDS011;45901;47.600;9.890;2022-10-16T20:03:41;4.83;;;2.43;;
60030;SDS011;45901;47.600;9.890;2022-10-16T20:06:09;6.07;;;2.60;;
60030;SDS011;45901;47.600;9.890;2022-10-16T20:08:37;5.53;;;3.00;;
60030;SDS011;45901;47.600;9.890;2022-10-16T20:11:09;11.73;;;4.30;;
60030;SDS011;45901;47.600;9.890;2022-10-16T20:13:39;8.60;;;4.33;;
60030;SDS011;45901;47.600;9.890;2022-10-16T20:16:06;9.20;;;3.80;;
60030;SDS011;45901;47.600;9.890;2022-10-16T20:18:38;7.77;;;3.07;;
60030;SDS011;45901;47.600;9.890;2022-10-16T20:21:08;7.37;;;3.17;;
60030;SDS011;45901;47.600;9.890;2022-10-16T20:23:36;7.03;;;3.87;;
60030;SDS011;45901;47.600;9.890;2022-10-16T20:26:04;4.97;;;3.43;;
60030;SDS011;45901;47.600;9.890;2022-10-16T20:28:32;6.93;;;3.20;;
60030;SDS011;45901;47.600;9.890;2022-10-16T20:31:04;6.40;;;3.43;;
60030;SDS011;45901;47.600;9.890;2022-10-16T20:33:33;7.83;;;3.20;;
60030;SDS011;45901;47.600;9.890;2022-10-16T20:36:02;5.13;;;2.97;;
60030;SDS011;45901;47.600;9.890;2022-10-16T20:38:35;5.67;;;3.20;;
60030;SDS011;45901;47.600;9.890;2022-10-16T20:41:03;7.67;;;3.30;;
60030;SDS011;45901;47.600;9.890;2022-10-16T20:43:32;6.57;;;3.37;;
60030;SDS011;45901;47.600;9.890;2022-10-16T20:46:00;5.57;;;3.03;;
60030;SDS011;45901;47.600;9.890;2022-10-16T20:48:29;5.93;;;3.33;;
60030;SDS011;45901;47.600;9.890;2022-10-16T20:50:57;6.33;;;3.53;;
60030;SDS011;45901;47.600;9.890;2022-10-16T20:53:26;8.10;;;3.90;;
60030;SDS011;45901;47.600;9.890;2022-10-16T20:55:53;7.17;;;3.60;;
60030;SDS011;45901;47.600;9.890;2022-10-16T20:58:21;5.70;;;3.03;;
60030;SDS011;45901;47.600;9.890;2022-10-16T21:00:48;6.63;;;3.37;;
60030;SDS011;45901;47.600;9.890;2022-10-16T21:03:15;4.37;;;3.07;;
60030;SDS011;45901;47.600;9.890;2022-10-16T21:05:42;4.57;;;2.87;;
60030;SDS011;45901;47.600;9.890;2022-10-16T21:08:10;5.67;;;3.03;;
60030;SDS011;45901;47.600;9.890;2022-10-16T21:10:38;5.10;;;3.00;;
60030;SDS011;45901;47.600;9.890;2022-10-16T21:13:05;7.03;;;3.00;;
60030;SDS011;45901;47.600;9.890;2022-10-16T21:15:33;7.80;;;3.00;;
60030;SDS011;45901;47.600;9.890;2022-10-16T21:18:01;10.87;;;3.07;;
60030;SDS011;45901;47.600;9.890;2022-10-16T21:20:29;11.90;;;2.83;;
60030;SDS011;45901;47.600;9.890;2022-10-16T21:22:56;5.70;;;2.93;;
60030;SDS011;45901;47.600;9.890;2022-10-16T21:25:23;11.60;;;3.20;;
60030;SDS011;45901;47.600;9.890;2022-10-16T21:27:52;9.33;;;3.30;;
60030;SDS011;45901;47.600;9.890;2022-10-16T21:30:19;6.00;;;3.00;;
60030;SDS011;45901;47.600;9.890;2022-10-16T21:32:46;5.67;;;2.87;;
60030;SDS011;45901;47.600;9.890;2022-10-16T21:35:13;4.97;;;3.17;;
60030;SDS011;45901;47.600;9.890;2022-10-16T21:37:40;5.57;;;3.27;;
60030;SDS011;45901;47.600;9.890;2022-10-16T21:40:08;8.97;;;3.30;;
60030;SDS011;45901;47.600;9.890;2022-10-16T21:42:36;5.73;;;2.57;;